createdAt,value
2023-01-03T00:01:27.929Z,3.70
2023-01-03T00:03:57.299Z,7.10
2023-01-03T00:06:27.672Z,8.13
2023-01-03T00:08:58.361Z,6.30
2023-01-03T00:11:42.276Z,7.37
2023-01-03T00:14:14.556Z,6.85
2023-01-03T00:16:43.434Z,5.75
2023-01-03T00:19:13.732Z,5.35
2023-01-03T00:21:43.277Z,7.07
2023-01-03T00:24:12.374Z,5.03
2023-01-03T00:26:41.654Z,4.18
2023-01-03T00:29:12.911Z,6.53
2023-01-03T00:31:41.977Z,5.65
2023-01-03T00:34:11.037Z,7.55
2023-01-03T00:36:40.299Z,5.05
2023-01-03T00:39:09.833Z,8.57
2023-01-03T00:41:38.119Z,6.55
2023-01-03T00:44:07.381Z,5.38
2023-01-03T00:46:38.708Z,5.03
2023-01-03T00:49:07.789Z,6.65
2023-01-03T00:51:38.134Z,5.78
2023-01-03T00:54:08.698Z,7.70
2023-01-03T00:56:39.011Z,4.30
2023-01-03T00:59:09.145Z,6.90
2023-01-03T01:01:46.551Z,4.18
2023-01-03T01:04:18.540Z,6.28
2023-01-03T01:06:48.650Z,5.28
2023-01-03T01:09:19.450Z,6.88
2023-01-03T01:11:48.231Z,6.47
2023-01-03T01:14:23.945Z,7.32
2023-01-03T01:16:55.880Z,6.40
2023-01-03T01:19:29.182Z,6.28
2023-01-03T01:21:58.094Z,6.00
2023-01-03T01:24:27.197Z,5.45
2023-01-03T01:26:55.886Z,5.43
2023-01-03T01:29:24.272Z,4.60
2023-01-03T01:31:54.286Z,7.10
2023-01-03T01:34:22.882Z,5.15
2023-01-03T01:36:51.703Z,4.18
2023-01-03T01:39:22.495Z,5.95
2023-01-03T01:42:13.639Z,5.90
2023-01-03T01:44:52.191Z,7.28
2023-01-03T01:47:31.206Z,4.82
2023-01-03T01:50:05.149Z,3.97
2023-01-03T01:52:36.653Z,6.75
2023-01-03T01:55:08.420Z,5.32
2023-01-03T02:00:09.750Z,5.15
2023-01-03T02:02:39.706Z,7.80
2023-01-03T02:05:10.288Z,5.05
2023-01-03T02:07:39.356Z,6.70
2023-01-03T02:10:10.611Z,6.85
2023-01-03T02:13:00.163Z,5.25
2023-01-03T02:15:41.760Z,5.57
2023-01-03T02:18:25.847Z,7.40
2023-01-03T02:21:20.323Z,5.75
2023-01-03T02:24:25.983Z,6.80
2023-01-03T02:27:02.534Z,5.93
2023-01-03T02:30:04.758Z,5.35
2023-01-03T02:32:40.180Z,4.57
2023-01-03T02:35:17.990Z,4.57
2023-01-03T02:37:53.919Z,4.45
2023-01-03T02:40:28.002Z,5.03
2023-01-03T02:43:03.319Z,5.20
2023-01-03T02:45:53.914Z,6.10
2023-01-03T02:48:34.285Z,5.50
2023-01-03T02:51:06.516Z,4.22
2023-01-03T02:53:40.735Z,6.32
2023-01-03T02:56:12.539Z,5.88
2023-01-03T02:58:47.460Z,6.30
2023-01-03T03:01:18.249Z,9.50
2023-01-03T03:03:49.232Z,5.80
2023-01-03T03:06:24.233Z,6.28
2023-01-03T03:08:52.926Z,7.50
2023-01-03T03:11:39.218Z,6.43
2023-01-03T03:14:13.978Z,5.22
2023-01-03T03:16:51.495Z,4.93
2023-01-03T03:19:45.834Z,7.97
2023-01-03T03:22:41.715Z,5.15
2023-01-03T03:25:14.586Z,5.82
2023-01-03T03:28:04.273Z,6.45
2023-01-03T03:30:35.999Z,4.85
2023-01-03T03:35:41.037Z,5.18
2023-01-03T03:38:14.483Z,6.53
2023-01-03T03:41:08.286Z,4.40
2023-01-03T03:44:01.572Z,4.78
2023-01-03T03:46:36.099Z,6.25
2023-01-03T03:49:27.505Z,5.03
2023-01-03T03:52:01.410Z,4.25
2023-01-03T03:54:34.792Z,3.80
2023-01-03T03:57:08.936Z,6.00
2023-01-03T03:59:38.419Z,4.88
2023-01-03T04:02:09.893Z,5.40
2023-01-03T04:04:43.290Z,4.35
2023-01-03T04:07:16.443Z,5.38
2023-01-03T04:09:44.966Z,5.43
2023-01-03T04:12:13.644Z,6.47
2023-01-03T04:14:42.785Z,4.97
2023-01-03T04:17:12.350Z,6.00
2023-01-03T04:19:40.710Z,4.45
2023-01-03T04:22:11.037Z,5.88
2023-01-03T04:24:41.692Z,7.32
2023-01-03T04:27:10.620Z,5.03
2023-01-03T04:29:39.807Z,4.78
2023-01-03T04:32:10.271Z,5.07
2023-01-03T04:34:38.794Z,4.43
2023-01-03T04:37:07.192Z,7.63
2023-01-03T04:39:36.176Z,3.28
2023-01-03T04:42:27.053Z,5.05
2023-01-03T04:44:54.751Z,4.05
2023-01-03T04:47:23.483Z,3.55
2023-01-03T04:49:53.108Z,3.65
2023-01-03T04:52:21.700Z,4.68
2023-01-03T04:54:50.802Z,3.63
2023-01-03T04:57:20.570Z,4.20
2023-01-03T04:59:49.215Z,3.58
2023-01-03T05:02:19.126Z,4.85
2023-01-03T05:04:47.658Z,11.35
2023-01-03T05:07:16.219Z,19.77
2023-01-03T05:09:46.297Z,21.90
2023-01-03T05:12:14.745Z,11.05
2023-01-03T05:14:44.592Z,10.13
2023-01-03T05:17:13.100Z,5.88
2023-01-03T05:19:55.532Z,4.53
2023-01-03T05:22:41.978Z,4.65
2023-01-03T05:25:28.323Z,3.30
2023-01-03T05:27:58.383Z,5.35
2023-01-03T05:30:29.487Z,4.55
2023-01-03T05:32:58.695Z,3.17
2023-01-03T05:35:27.797Z,2.55
2023-01-03T05:37:56.578Z,2.92
2023-01-03T05:40:24.909Z,2.72
2023-01-03T05:42:53.422Z,5.40
2023-01-03T05:45:25.632Z,3.38
2023-01-03T05:47:58.949Z,2.33
2023-01-03T05:50:27.879Z,2.47
2023-01-03T05:52:56.283Z,4.40
2023-01-03T05:55:24.827Z,2.00
2023-01-03T05:57:55.958Z,2.65
2023-01-03T06:00:24.741Z,2.28
2023-01-03T06:02:58.253Z,3.83
2023-01-03T06:05:27.493Z,2.85
2023-01-03T06:07:55.836Z,1.77
2023-01-03T06:10:24.507Z,3.40
2023-01-03T06:12:54.540Z,2.33
2023-01-03T06:15:23.158Z,2.72
2023-01-03T06:17:58.212Z,4.57
2023-01-03T06:20:30.204Z,2.90
2023-01-03T06:22:59.320Z,5.53
2023-01-03T06:25:28.417Z,2.30
2023-01-03T06:27:57.216Z,3.42
2023-01-03T06:30:27.064Z,4.05
2023-01-03T06:32:55.391Z,3.30
2023-01-03T06:35:23.773Z,3.30
2023-01-03T06:37:53.886Z,6.07
2023-01-03T06:40:22.975Z,4.63
2023-01-03T06:42:51.178Z,3.10
2023-01-03T06:45:37.592Z,2.90
2023-01-03T06:48:24.755Z,2.90
2023-01-03T06:51:10.894Z,2.53
2023-01-03T06:53:42.686Z,4.95
2023-01-03T06:56:11.704Z,2.47
2023-01-03T06:58:40.149Z,4.38
2023-01-03T07:01:08.730Z,3.83
2023-01-03T07:03:37.401Z,2.13
2023-01-03T07:06:05.811Z,1.95
2023-01-03T07:08:34.036Z,2.50
2023-01-03T07:11:03.647Z,1.95
2023-01-03T07:13:49.067Z,2.85
2023-01-03T07:16:18.188Z,3.50
2023-01-03T07:18:54.697Z,2.42
2023-01-03T07:21:24.833Z,2.58
2023-01-03T07:23:54.939Z,2.55
2023-01-03T07:26:25.426Z,3.67
2023-01-03T07:28:53.978Z,2.45
2023-01-03T07:31:22.252Z,2.88
2023-01-03T07:33:50.525Z,3.05
2023-01-03T07:36:19.040Z,2.45
2023-01-03T07:38:48.137Z,3.90
2023-01-03T07:41:16.805Z,2.97
2023-01-03T07:43:47.286Z,2.92
2023-01-03T07:46:18.749Z,2.22
2023-01-03T07:48:49.887Z,2.80
2023-01-03T07:51:20.173Z,3.38
2023-01-03T07:53:51.098Z,2.35
2023-01-03T07:56:21.087Z,3.63
2023-01-03T07:58:52.084Z,2.60
2023-01-03T08:01:22.255Z,3.03
2023-01-03T08:03:50.656Z,3.88
2023-01-03T08:06:21.486Z,3.22
2023-01-03T08:09:11.112Z,2.92
2023-01-03T08:11:56.841Z,3.22
2023-01-03T08:14:27.466Z,4.55
2023-01-03T08:16:56.078Z,3.92
2023-01-03T08:19:24.657Z,3.95
2023-01-03T08:21:52.886Z,3.40
2023-01-03T08:24:21.180Z,3.60
2023-01-03T08:26:49.574Z,3.03
2023-01-03T08:29:18.430Z,4.70
2023-01-03T08:31:52.933Z,3.40
2023-01-03T08:34:29.028Z,4.38
2023-01-03T08:37:02.091Z,3.42
2023-01-03T08:39:35.505Z,3.83
2023-01-03T08:42:06.968Z,4.47
2023-01-03T08:44:35.840Z,3.60
2023-01-03T08:47:08.508Z,3.22
2023-01-03T08:49:37.607Z,2.75
2023-01-03T08:52:06.171Z,3.75
2023-01-03T08:54:34.684Z,4.15
2023-01-03T08:57:03.431Z,4.30
2023-01-03T08:59:31.808Z,3.85
2023-01-03T09:02:00.717Z,5.25
2023-01-03T09:04:30.731Z,4.18
2023-01-03T09:06:59.347Z,4.68
2023-01-03T09:09:28.428Z,4.10
2023-01-03T09:11:56.630Z,3.90
2023-01-03T09:14:25.040Z,4.43
2023-01-03T09:16:53.352Z,5.13
2023-01-03T09:19:21.748Z,3.97
2023-01-03T09:21:51.471Z,3.88
2023-01-03T09:24:19.628Z,3.83
2023-01-03T09:26:54.227Z,5.68
2023-01-03T09:29:23.453Z,6.28
2023-01-03T09:31:51.995Z,5.78
2023-01-03T09:34:20.489Z,5.30
2023-01-03T09:36:50.137Z,4.78
2023-01-03T09:39:18.460Z,8.23
2023-01-03T09:42:06.669Z,5.78
2023-01-03T09:44:35.161Z,6.35
2023-01-03T09:47:04.495Z,7.32
2023-01-03T09:49:32.926Z,5.97
2023-01-03T09:52:20.438Z,5.15
2023-01-03T09:55:06.204Z,4.75
2023-01-03T09:57:54.811Z,5.53
2023-01-03T10:00:51.962Z,4.25
2023-01-03T10:03:52.848Z,4.57
2023-01-03T10:06:33.961Z,4.70
2023-01-03T10:09:14.246Z,4.90
2023-01-03T10:11:50.038Z,4.47
2023-01-03T10:14:31.139Z,5.13
2023-01-03T10:17:10.937Z,5.80
2023-01-03T10:20:05.483Z,7.45
2023-01-03T10:22:34.732Z,6.63
2023-01-03T10:25:12.465Z,7.43
2023-01-03T10:27:46.337Z,7.53
2023-01-03T10:30:17.947Z,9.13
2023-01-03T10:35:24.832Z,8.05
2023-01-03T10:37:55.108Z,7.75
2023-01-03T10:40:35.994Z,5.15
2023-01-03T10:43:15.550Z,6.93
2023-01-03T10:45:55.505Z,4.97
2023-01-03T10:48:24.867Z,4.60
2023-01-03T10:50:55.447Z,4.68
2023-01-03T10:53:24.525Z,4.50
2023-01-03T10:55:56.657Z,5.10
2023-01-03T10:58:32.242Z,5.20
2023-01-03T11:01:22.175Z,6.47
2023-01-03T11:04:14.278Z,7.57
2023-01-03T11:06:57.983Z,6.03
2023-01-03T11:09:27.861Z,5.45
2023-01-03T11:12:04.793Z,4.97
2023-01-03T11:14:33.198Z,3.70
2023-01-03T11:17:04.227Z,4.18
2023-01-03T11:19:34.880Z,4.65
2023-01-03T11:22:08.579Z,5.22
2023-01-03T11:24:51.827Z,7.30
2023-01-03T11:27:32.125Z,7.75
2023-01-03T11:30:18.402Z,6.75
2023-01-03T11:33:17.106Z,8.27
2023-01-03T11:35:58.827Z,7.13
2023-01-03T11:41:13.150Z,9.18
2023-01-03T11:43:57.220Z,9.85
2023-01-03T11:46:40.737Z,8.43
2023-01-03T11:49:28.469Z,5.00
2023-01-03T11:52:15.616Z,3.75
2023-01-03T11:55:18.572Z,3.40
2023-01-03T11:57:58.064Z,3.47
2023-01-03T12:00:33.960Z,3.85
2023-01-03T12:03:09.448Z,4.20
2023-01-03T12:05:50.174Z,4.18
2023-01-03T12:08:44.972Z,3.58
2023-01-03T12:11:23.963Z,3.95
2023-01-03T12:14:01.394Z,3.55
2023-01-03T12:16:37.020Z,4.50
2023-01-03T12:19:12.707Z,4.32
2023-01-03T12:21:45.245Z,4.25
2023-01-03T12:24:18.765Z,4.38
2023-01-03T12:26:56.239Z,4.30
2023-01-03T12:29:30.162Z,4.60
2023-01-03T12:32:07.167Z,4.72
2023-01-03T12:34:43.740Z,5.55
2023-01-03T12:37:17.451Z,4.95
2023-01-03T12:39:55.357Z,4.50
2023-01-03T12:42:39.298Z,7.85
2023-01-03T12:45:32.883Z,5.05
2023-01-03T12:48:13.841Z,4.18
2023-01-03T12:50:46.599Z,6.15
2023-01-03T12:53:21.968Z,5.35
2023-01-03T12:56:10.789Z,7.82
2023-01-03T12:58:51.879Z,7.55
2023-01-03T13:01:27.368Z,6.47
2023-01-03T13:04:00.703Z,7.00
2023-01-03T13:06:32.524Z,6.38
2023-01-03T13:09:04.925Z,6.57
2023-01-03T13:11:37.013Z,5.93
2023-01-03T13:14:07.729Z,6.75
2023-01-03T13:16:46.284Z,7.43
2023-01-03T13:19:57.532Z,6.43
2023-01-03T13:22:49.948Z,5.23
2023-01-03T13:25:41.836Z,5.30
2023-01-03T13:31:47.895Z,6.20
2023-01-03T13:34:20.264Z,8.00
2023-01-03T13:37:12.680Z,8.10
2023-01-03T13:39:49.101Z,6.15
2023-01-03T13:42:23.576Z,6.28
2023-01-03T13:44:52.582Z,5.88
2023-01-03T13:47:26.719Z,4.45
2023-01-03T13:49:55.262Z,5.35
2023-01-03T13:52:58.341Z,4.55
2023-01-03T13:55:39.867Z,4.55
2023-01-03T13:58:31.396Z,4.20
2023-01-03T14:01:06.212Z,3.55
2023-01-03T14:03:57.231Z,3.90
2023-01-03T14:06:55.092Z,3.42
2023-01-03T14:09:36.545Z,2.88
2023-01-03T14:12:38.596Z,4.00
2023-01-03T14:17:56.515Z,3.70
2023-01-03T14:20:27.945Z,3.35
2023-01-03T14:22:58.349Z,3.33
2023-01-03T14:25:35.333Z,3.60
2023-01-03T14:28:07.919Z,3.70
2023-01-03T14:30:37.611Z,5.38
2023-01-03T14:33:06.100Z,4.22
2023-01-03T14:35:37.335Z,3.40
2023-01-03T14:38:07.287Z,2.63
2023-01-03T14:40:36.155Z,2.13
2023-01-03T14:43:20.956Z,2.33
2023-01-03T14:45:54.335Z,2.58
2023-01-03T14:48:24.655Z,2.90
2023-01-03T14:50:54.374Z,1.75
2023-01-03T14:53:23.657Z,2.00
2023-01-03T14:55:54.733Z,1.42
2023-01-03T14:58:32.479Z,1.67
2023-01-03T15:01:02.359Z,2.20
2023-01-03T15:03:34.263Z,3.40
2023-01-03T15:06:02.760Z,2.92
2023-01-03T15:08:32.797Z,4.10
2023-01-03T15:11:06.043Z,3.58
2023-01-03T15:13:39.800Z,4.50
2023-01-03T15:16:20.689Z,4.80
2023-01-03T15:18:49.589Z,4.38
2023-01-03T15:21:21.839Z,3.67
2023-01-03T15:23:51.317Z,4.05
2023-01-03T15:26:23.234Z,5.90
2023-01-03T15:28:55.214Z,4.75
2023-01-03T15:31:31.467Z,4.65
2023-01-03T15:34:11.838Z,4.53
2023-01-03T15:36:40.944Z,4.20
2023-01-03T15:39:11.145Z,5.15
2023-01-03T15:42:34.603Z,5.15
2023-01-03T15:44:48.747Z,5.25
2023-01-03T15:47:20.063Z,6.63
2023-01-03T15:49:51.611Z,7.90
2023-01-03T15:52:21.269Z,6.88
2023-01-03T15:54:49.767Z,8.20
2023-01-03T15:57:21.118Z,8.95
2023-01-03T15:59:54.675Z,8.00
2023-01-03T16:02:24.812Z,8.48
2023-01-03T16:04:54.486Z,9.55
2023-01-03T16:07:23.220Z,8.50
2023-01-03T16:09:51.475Z,9.80
2023-01-03T16:12:23.531Z,6.78
2023-01-03T16:14:55.307Z,8.40
2023-01-03T16:17:28.328Z,9.55
2023-01-03T16:19:57.948Z,12.07
2023-01-03T16:22:35.856Z,9.25
2023-01-03T16:25:05.538Z,9.07
2023-01-03T16:27:34.362Z,9.93
2023-01-03T16:30:04.203Z,8.98
2023-01-03T16:32:33.270Z,8.68
2023-01-03T16:35:03.125Z,8.13
2023-01-03T16:37:31.922Z,10.98
2023-01-03T16:40:00.475Z,12.90
2023-01-03T16:42:28.773Z,18.55
2023-01-03T16:44:58.067Z,18.92
2023-01-03T16:47:33.554Z,17.88
2023-01-03T16:50:06.202Z,23.88
2023-01-03T16:52:37.022Z,23.70
2023-01-03T16:55:25.431Z,22.27
2023-01-03T16:57:55.103Z,21.13
2023-01-03T17:00:26.066Z,23.35
2023-01-03T17:02:56.681Z,21.33
2023-01-03T17:05:25.253Z,21.33
2023-01-03T17:08:04.027Z,19.92
2023-01-03T17:10:35.296Z,20.73
2023-01-03T17:13:12.169Z,23.02
2023-01-03T17:15:41.178Z,21.05
2023-01-03T17:18:17.822Z,19.83
2023-01-03T17:20:46.250Z,18.85
2023-01-03T17:23:14.635Z,16.45
2023-01-03T17:25:43.576Z,15.30
2023-01-03T17:28:12.090Z,11.65
2023-01-03T17:30:40.563Z,7.30
2023-01-03T17:33:10.845Z,7.40
2023-01-03T17:35:40.199Z,6.60
2023-01-03T17:38:28.500Z,7.45
2023-01-03T17:40:57.466Z,8.23
2023-01-03T17:43:27.274Z,10.95
2023-01-03T17:46:22.694Z,13.13
2023-01-03T17:49:10.992Z,14.05
2023-01-03T17:51:39.446Z,16.20
2023-01-03T17:54:07.852Z,15.40
2023-01-03T17:56:37.394Z,14.02
2023-01-03T17:59:06.051Z,12.13
2023-01-03T18:01:35.403Z,12.38
2023-01-03T18:04:05.274Z,13.60
2023-01-03T18:06:33.754Z,14.15
2023-01-03T18:09:04.169Z,17.65
2023-01-03T18:11:33.357Z,11.52
2023-01-03T18:14:01.714Z,13.77
2023-01-03T18:16:30.226Z,12.60
2023-01-03T18:18:58.731Z,12.40
2023-01-03T18:21:29.004Z,11.52
2023-01-03T18:23:59.421Z,7.95
2023-01-03T18:26:33.018Z,8.38
2023-01-03T18:29:01.394Z,6.05
2023-01-03T18:31:31.479Z,7.07
2023-01-03T18:34:04.246Z,8.02
2023-01-03T18:36:40.045Z,7.38
2023-01-03T18:39:14.361Z,8.45
2023-01-03T18:41:43.085Z,5.70
2023-01-03T18:44:20.677Z,4.63
2023-01-03T18:46:49.762Z,5.70
2023-01-03T18:49:18.720Z,4.63
2023-01-03T18:51:52.216Z,4.32
2023-01-03T18:54:21.274Z,4.70
2023-01-03T18:56:49.587Z,5.38
2023-01-03T18:59:21.957Z,4.53
2023-01-03T19:01:50.718Z,4.70
2023-01-03T19:04:19.137Z,5.60
2023-01-03T19:06:51.533Z,5.75
2023-01-03T19:09:22.977Z,9.35
2023-01-03T19:11:52.242Z,12.95
2023-01-03T19:14:20.844Z,8.88
2023-01-03T19:16:49.270Z,7.32
2023-01-03T19:19:17.638Z,7.20
2023-01-03T19:21:49.465Z,8.95
2023-01-03T19:24:24.072Z,11.00
2023-01-03T19:26:56.338Z,7.18
2023-01-03T19:29:26.081Z,10.18
2023-01-03T19:31:57.906Z,9.13
2023-01-03T19:34:28.373Z,5.93
2023-01-03T19:36:59.151Z,9.35
2023-01-03T19:39:30.889Z,8.60
2023-01-03T19:42:19.489Z,6.40
2023-01-03T19:44:48.277Z,6.03
2023-01-03T19:47:18.085Z,7.38
2023-01-03T19:49:48.349Z,5.97
2023-01-03T19:52:19.046Z,5.50
2023-01-03T19:54:47.213Z,6.07
2023-01-03T19:57:21.793Z,7.25
2023-01-03T19:59:53.743Z,5.72
2023-01-03T20:02:36.128Z,5.15
2023-01-03T20:05:07.729Z,5.55
2023-01-03T20:07:37.670Z,4.95
2023-01-03T20:10:06.575Z,7.28
2023-01-03T20:12:35.231Z,5.07
2023-01-03T20:15:07.249Z,4.60
2023-01-03T20:17:38.257Z,5.03
2023-01-03T20:20:07.270Z,5.45
2023-01-03T20:23:03.665Z,6.53
2023-01-03T20:25:28.195Z,5.63
2023-01-03T20:27:57.598Z,4.40
2023-01-03T20:30:27.917Z,5.93
2023-01-03T20:32:56.551Z,5.70
2023-01-03T20:38:24.877Z,6.25
2023-01-03T20:40:53.522Z,4.40
2023-01-03T20:43:21.990Z,6.28
2023-01-03T20:45:54.045Z,5.25
2023-01-03T20:48:25.912Z,5.57
2023-01-03T20:50:55.111Z,5.63
2023-01-03T20:53:26.376Z,5.78
2023-01-03T20:55:55.441Z,4.60
2023-01-03T20:58:26.249Z,5.43
2023-01-03T21:01:03.954Z,5.72
2023-01-03T21:03:35.089Z,4.85
2023-01-03T21:06:03.868Z,4.80
2023-01-03T21:08:51.107Z,3.97
2023-01-03T21:11:19.468Z,5.15
2023-01-03T21:13:47.723Z,4.57
2023-01-03T21:16:28.727Z,6.50
2023-01-03T21:18:57.644Z,5.28
2023-01-03T21:21:26.269Z,4.47
2023-01-03T21:23:55.930Z,5.43
2023-01-03T21:26:24.173Z,5.18
2023-01-03T21:28:52.403Z,5.63
2023-01-03T21:31:22.908Z,6.38
2023-01-03T21:33:51.499Z,4.65
2023-01-03T21:36:24.854Z,4.82
2023-01-03T21:38:53.354Z,3.97
2023-01-03T21:41:24.823Z,5.25
2023-01-03T21:43:56.381Z,4.97
2023-01-03T21:46:25.599Z,4.60
2023-01-03T21:48:54.501Z,6.35
2023-01-03T21:51:38.498Z,6.53
2023-01-03T21:54:09.042Z,5.80
2023-01-03T21:56:45.630Z,5.80
2023-01-03T21:59:15.025Z,7.05
2023-01-03T22:02:10.521Z,4.88
2023-01-03T22:04:39.655Z,6.45
2023-01-03T22:07:08.639Z,5.32
2023-01-03T22:09:53.965Z,5.18
2023-01-03T22:12:23.627Z,4.97
2023-01-03T22:14:51.890Z,4.63
2023-01-03T22:17:20.196Z,4.50
2023-01-03T22:19:48.394Z,4.47
2023-01-03T22:22:17.033Z,4.13
2023-01-03T22:24:45.614Z,6.45
2023-01-03T22:27:13.934Z,8.10
2023-01-03T22:29:43.508Z,9.48
2023-01-03T22:32:11.853Z,13.60
2023-01-03T22:34:40.329Z,12.13
2023-01-03T22:37:08.890Z,11.52
2023-01-03T22:39:37.141Z,9.02
2023-01-03T22:42:05.767Z,6.10
2023-01-03T22:44:34.565Z,4.97
2023-01-03T22:47:04.607Z,4.18
2023-01-03T22:49:33.174Z,3.90
2023-01-03T22:52:01.394Z,5.22
2023-01-03T22:54:29.591Z,4.55
2023-01-03T22:56:58.441Z,6.35
2023-01-03T22:59:26.696Z,4.05
2023-01-03T23:01:55.470Z,4.65
2023-01-03T23:04:26.680Z,5.10
2023-01-03T23:06:55.843Z,3.95
2023-01-03T23:09:24.695Z,4.28
2023-01-03T23:12:10.578Z,4.18
2023-01-03T23:14:39.249Z,6.25
2023-01-03T23:17:25.105Z,4.28
2023-01-03T23:19:54.854Z,4.85
2023-01-03T23:22:23.240Z,8.18
2023-01-03T23:24:51.784Z,4.57
2023-01-03T23:27:19.957Z,4.78
2023-01-03T23:29:48.172Z,3.78
2023-01-03T23:32:16.417Z,4.22
2023-01-03T23:34:45.402Z,5.28
2023-01-03T23:37:15.264Z,4.65
2023-01-03T23:39:44.194Z,5.25
2023-01-03T23:42:12.395Z,5.40
2023-01-03T23:44:40.660Z,4.55
2023-01-03T23:47:12.693Z,6.28
2023-01-03T23:49:41.253Z,4.45
2023-01-03T23:52:09.796Z,4.78
2023-01-03T23:54:39.603Z,4.47
2023-01-03T23:57:07.933Z,4.85
2023-01-03T23:59:36.221Z,4.55
